Time;durP1;ratioP1;P1;durP2;ratioP2;P2;SDS_P1;SDS_P2;PMS_P1;PMS_P2;Temp;Humidity;BMP_temperature;BMP_pressure;BME280_temperature;BME280_humidity;BME280_pressure;Samples;Min_cycle;Max_cycle;Signal;HPM_P1;HPM_P2
2022/07/26 00:02:21;;;;;;;0.00;0.00;;;;;;;;;;5036941;28;20548;-90
2022/07/26 00:04:48;;;;;;;0.10;0.10;;;;;;;;;;5039749;28;20483;-91
2022/07/26 00:07:14;;;;;;;0.30;0.30;;;;;;;;;;5040606;28;20518;-91
2022/07/26 00:09:42;;;;;;;0.20;0.20;;;;;;;;;;5041378;28;20068;-90
2022/07/26 00:12:08;;;;;;;0.10;0.10;;;;;;;;;;5023399;28;20498;-91
2022/07/26 00:14:35;;;;;;;0.10;0.10;;;;;;;;;;5040144;28;20041;-91
2022/07/26 00:17:01;;;;;;;0.05;0.05;;;;;;;;;;5040790;28;20053;-91
2022/07/26 00:19:27;;;;;;;0.10;0.10;;;;;;;;;;5040176;28;20041;-91
2022/07/26 00:24:38;;;;;;;0.10;0.10;;;;;;;;;;5040710;28;20057;-90
2022/07/26 00:27:04;;;;;;;0.10;0.10;;;;;;;;;;5023551;28;20041;-91
2022/07/26 00:29:31;;;;;;;0.10;0.10;;;;;;;;;;5040852;28;20068;-90
2022/07/26 00:31:57;;;;;;;0.10;0.10;;;;;;;;;;5039999;28;20048;-91
2022/07/26 00:34:23;;;;;;;0.00;0.00;;;;;;;;;;5040755;28;20037;-90
2022/07/26 00:36:49;;;;;;;0.10;0.10;;;;;;;;;;5024026;28;20037;-90
2022/07/26 00:39:15;;;;;;;0.10;0.10;;;;;;;;;;5040227;28;20049;-90
2022/07/26 00:41:41;;;;;;;0.00;0.00;;;;;;;;;;5040592;28;20101;-91
2022/07/26 00:44:07;;;;;;;0.10;0.10;;;;;;;;;;5039828;28;20073;-91
2022/07/26 00:46:33;;;;;;;0.00;0.00;;;;;;;;;;5040905;28;20041;-91
2022/07/26 00:48:59;;;;;;;0.00;0.00;;;;;;;;;;5040793;28;20046;-91
2022/07/26 00:51:26;;;;;;;0.00;0.00;;;;;;;;;;5040818;28;20045;-90
2022/07/26 00:53:52;;;;;;;0.00;0.00;;;;;;;;;;5041156;28;20084;-91
2022/07/26 00:56:18;;;;;;;0.10;0.10;;;;;;;;;;5040851;28;20048;-91
2022/07/26 00:58:45;;;;;;;0.10;0.10;;;;;;;;;;5039603;28;20037;-90
2022/07/26 01:01:11;;;;;;;0.00;0.00;;;;;;;;;;5039553;28;20045;-89
2022/07/26 01:03:37;;;;;;;0.05;0.05;;;;;;;;;;5040265;28;20133;-90
2022/07/26 01:06:04;;;;;;;0.10;0.10;;;;;;;;;;5040886;28;20045;-91
2022/07/26 01:08:30;;;;;;;0.10;0.10;;;;;;;;;;5041195;28;20087;-91
2022/07/26 01:10:56;;;;;;;0.00;0.00;;;;;;;;;;5040965;28;20056;-91
2022/07/26 01:13:22;;;;;;;0.10;0.10;;;;;;;;;;5040473;28;20037;-90
2022/07/26 01:15:48;;;;;;;0.10;0.10;;;;;;;;;;5039823;28;20084;-89
2022/07/26 01:18:16;;;;;;;0.10;0.10;;;;;;;;;;5040544;28;20045;-90
2022/07/26 01:20:43;;;;;;;0.00;0.00;;;;;;;;;;5041321;28;20214;-90
2022/07/26 01:23:09;;;;;;;0.03;0.03;;;;;;;;;;5040556;28;20033;-91
2022/07/26 01:25:37;;;;;;;0.10;0.10;;;;;;;;;;5039817;28;20037;-90
2022/07/26 01:28:04;;;;;;;0.00;0.00;;;;;;;;;;5023151;28;20044;-90
2022/07/26 01:30:31;;;;;;;0.00;0.00;;;;;;;;;;5038671;28;20037;-90
2022/07/26 01:32:57;;;;;;;0.10;0.10;;;;;;;;;;5023273;28;20052;-92
2022/07/26 01:35:23;;;;;;;0.00;0.00;;;;;;;;;;5040078;28;20081;-91
2022/07/26 01:37:51;;;;;;;0.00;0.00;;;;;;;;;;5039692;28;20065;-90
2022/07/26 01:40:17;;;;;;;0.10;0.10;;;;;;;;;;5038549;28;20042;-90
2022/07/26 01:42:43;;;;;;;0.05;0.05;;;;;;;;;;5022086;28;20510;-89
2022/07/26 01:45:10;;;;;;;0.00;0.00;;;;;;;;;;5039243;28;20376;-90
2022/07/26 01:47:37;;;;;;;0.10;0.10;;;;;;;;;;5038794;28;20065;-89
2022/07/26 01:50:04;;;;;;;0.05;0.05;;;;;;;;;;5038019;28;20041;-90
2022/07/26 01:52:30;;;;;;;0.00;0.00;;;;;;;;;;5038029;28;20041;-91
2022/07/26 01:54:56;;;;;;;0.03;0.03;;;;;;;;;;5040673;28;20049;-90
2022/07/26 01:57:22;;;;;;;0.00;0.00;;;;;;;;;;5038146;28;20424;-90
2022/07/26 01:59:48;;;;;;;0.10;0.10;;;;;;;;;;5039009;28;20347;-90
2022/07/26 02:02:14;;;;;;;0.05;0.05;;;;;;;;;;5038400;28;20033;-90
2022/07/26 02:04:58;;;;;;;0.05;0.05;;;;;;;;;;5037691;28;20396;-90
2022/07/26 02:07:25;;;;;;;0.10;0.10;;;;;;;;;;5037607;28;20128;-90
2022/07/26 02:09:51;;;;;;;0.00;0.00;;;;;;;;;;5037672;28;20049;-89
2022/07/26 02:12:17;;;;;;;0.10;0.10;;;;;;;;;;5038618;28;20045;-91
2022/07/26 02:14:43;;;;;;;0.10;0.10;;;;;;;;;;5037862;28;20044;-90
2022/07/26 02:17:09;;;;;;;0.10;0.10;;;;;;;;;;5037957;28;20045;-89
2022/07/26 02:19:35;;;;;;;0.00;0.00;;;;;;;;;;5037868;28;20092;-90
2022/07/26 02:22:01;;;;;;;0.00;0.00;;;;;;;;;;5037892;28;20449;-91
2022/07/26 02:24:28;;;;;;;0.00;0.00;;;;;;;;;;5005841;28;20037;-90
2022/07/26 02:26:54;;;;;;;0.05;0.05;;;;;;;;;;5037761;28;20045;-90
2022/07/26 02:29:20;;;;;;;0.08;0.08;;;;;;;;;;5037869;28;20076;-90
2022/07/26 02:31:46;;;;;;;0.10;0.10;;;;;;;;;;5038910;28;20048;-90
2022/07/26 02:34:12;;;;;;;0.03;0.03;;;;;;;;;;5038391;28;20056;-91
2022/07/26 02:36:38;;;;;;;0.10;0.10;;;;;;;;;;5039043;28;20044;-90
2022/07/26 02:39:05;;;;;;;0.20;0.20;;;;;;;;;;5038284;28;20087;-91
2022/07/26 02:41:31;;;;;;;0.10;0.10;;;;;;;;;;5037205;28;20044;-89
2022/07/26 02:43:58;;;;;;;0.03;0.03;;;;;;;;;;5038146;28;20060;-90
2022/07/26 02:46:24;;;;;;;0.08;0.08;;;;;;;;;;5038983;28;20045;-91
2022/07/26 02:48:50;;;;;;;0.00;0.00;;;;;;;;;;5038440;28;20056;-90
2022/07/26 02:51:16;;;;;;;0.03;0.03;;;;;;;;;;5038505;28;20037;-91
2022/07/26 02:53:42;;;;;;;0.00;0.00;;;;;;;;;;5038937;28;20056;-91
2022/07/26 02:56:08;;;;;;;0.00;0.00;;;;;;;;;;5038785;28;20042;-91
2022/07/26 02:58:36;;;;;;;0.10;0.10;;;;;;;;;;5039858;28;20076;-91
2022/07/26 03:01:02;;;;;;;0.10;0.10;;;;;;;;;;5039192;28;20048;-93
2022/07/26 03:03:28;;;;;;;0.10;0.10;;;;;;;;;;5006115;28;20478;-91
2022/07/26 03:05:54;;;;;;;0.03;0.03;;;;;;;;;;5038652;28;20503;-91
2022/07/26 03:08:20;;;;;;;0.10;0.10;;;;;;;;;;5038401;28;20049;-91
2022/07/26 03:10:46;;;;;;;0.10;0.10;;;;;;;;;;5038978;28;20072;-90
2022/07/26 03:13:12;;;;;;;0.00;0.00;;;;;;;;;;5039631;28;20029;-91
2022/07/26 03:15:38;;;;;;;0.00;0.00;;;;;;;;;;5039297;28;20503;-91
2022/07/26 03:18:04;;;;;;;0.10;0.10;;;;;;;;;;5038909;28;20037;-90
2022/07/26 03:20:30;;;;;;;0.10;0.10;;;;;;;;;;5021399;28;20561;-90
2022/07/26 03:22:56;;;;;;;0.00;0.00;;;;;;;;;;5039428;28;20088;-89
2022/07/26 03:25:22;;;;;;;0.10;0.10;;;;;;;;;;5038326;28;20038;-90
2022/07/26 03:27:48;;;;;;;0.10;0.10;;;;;;;;;;5038755;28;20120;-91
2022/07/26 03:30:14;;;;;;;0.10;0.10;;;;;;;;;;5037510;28;20495;-87
2022/07/26 03:32:40;;;;;;;0.10;0.10;;;;;;;;;;5033465;28;20038;-86
2022/07/26 03:35:07;;;;;;;0.00;0.00;;;;;;;;;;5033089;28;20052;-86
2022/07/26 03:37:33;;;;;;;0.00;0.00;;;;;;;;;;5033697;28;20045;-88
2022/07/26 03:39:59;;;;;;;0.10;0.10;;;;;;;;;;5036331;28;20037;-87
2022/07/26 03:42:25;;;;;;;0.10;0.10;;;;;;;;;;5037449;28;20042;-87
2022/07/26 03:44:51;;;;;;;0.00;0.00;;;;;;;;;;5038499;28;20041;-87
2022/07/26 03:47:17;;;;;;;0.10;0.10;;;;;;;;;;5038509;28;20120;-87
2022/07/26 03:49:43;;;;;;;0.00;0.00;;;;;;;;;;5038188;28;20048;-88
2022/07/26 03:52:09;;;;;;;0.05;0.05;;;;;;;;;;5038708;28;20041;-87
2022/07/26 03:54:36;;;;;;;0.03;0.03;;;;;;;;;;5038922;28;20495;-88
2022/07/26 03:57:02;;;;;;;0.10;0.10;;;;;;;;;;5039104;28;20131;-88
2022/07/26 03:59:28;;;;;;;0.00;0.00;;;;;;;;;;5006465;28;20038;-87
2022/07/26 04:01:54;;;;;;;0.03;0.03;;;;;;;;;;5036708;28;20045;-86
2022/07/26 04:04:20;;;;;;;0.10;0.10;;;;;;;;;;5017418;28;20037;-88
2022/07/26 04:06:47;;;;;;;0.00;0.00;;;;;;;;;;5038927;28;20072;-87
2022/07/26 04:09:14;;;;;;;0.05;0.05;;;;;;;;;;5038754;28;20041;-88
2022/07/26 04:11:41;;;;;;;0.03;0.03;;;;;;;;;;5021665;28;20048;-87
2022/07/26 04:14:09;;;;;;;0.08;0.08;;;;;;;;;;5030423;28;20092;-88
2022/07/26 04:16:36;;;;;;;0.00;0.00;;;;;;;;;;5038600;28;20047;-88
2022/07/26 04:19:02;;;;;;;0.00;0.00;;;;;;;;;;5039079;28;20052;-88
2022/07/26 04:21:28;;;;;;;0.10;0.10;;;;;;;;;;5019865;28;20030;-89
2022/07/26 04:23:54;;;;;;;0.10;0.10;;;;;;;;;;5036585;28;20045;-87
2022/07/26 04:26:20;;;;;;;0.00;0.00;;;;;;;;;;5023153;28;20190;-88
2022/07/26 04:28:47;;;;;;;0.10;0.10;;;;;;;;;;5018415;28;20045;-88
2022/07/26 04:31:13;;;;;;;0.08;0.08;;;;;;;;;;5019013;28;20072;-88
2022/07/26 04:33:40;;;;;;;0.10;0.10;;;;;;;;;;5039163;28;20471;-88
2022/07/26 04:36:06;;;;;;;0.13;0.13;;;;;;;;;;5017932;28;20080;-88
2022/07/26 04:38:32;;;;;;;0.10;0.10;;;;;;;;;;5038749;28;20412;-88
2022/07/26 04:40:58;;;;;;;0.05;0.05;;;;;;;;;;5021174;28;20037;-88
2022/07/26 04:43:24;;;;;;;0.20;0.20;;;;;;;;;;5039037;28;20040;-89
2022/07/26 04:45:50;;;;;;;0.08;0.08;;;;;;;;;;5039050;28;20367;-87
2022/07/26 04:48:17;;;;;;;0.00;0.00;;;;;;;;;;5039031;28;20044;-88
2022/07/26 04:50:43;;;;;;;0.10;0.10;;;;;;;;;;5039947;28;20511;-89
2022/07/26 04:53:12;;;;;;;0.10;0.10;;;;;;;;;;5039327;28;20034;-88
2022/07/26 04:55:39;;;;;;;0.10;0.10;;;;;;;;;;5039615;28;20033;-88
2022/07/26 04:58:05;;;;;;;0.00;0.00;;;;;;;;;;5023839;28;20388;-88
2022/07/26 05:00:31;;;;;;;0.00;0.00;;;;;;;;;;5039351;28;20140;-86
2022/07/26 05:02:58;;;;;;;0.00;0.00;;;;;;;;;;5038689;28;20095;-88
2022/07/26 05:05:25;;;;;;;0.10;0.10;;;;;;;;;;5006365;28;20061;-88
2022/07/26 05:07:52;;;;;;;0.00;0.00;;;;;;;;;;5021814;28;20049;-88
2022/07/26 05:10:18;;;;;;;0.00;0.00;;;;;;;;;;5038922;28;20048;-89
2022/07/26 05:12:45;;;;;;;0.10;0.10;;;;;;;;;;5020861;28;20444;-88
2022/07/26 05:15:11;;;;;;;0.00;0.00;;;;;;;;;;5039413;28;20041;-88
2022/07/26 05:17:38;;;;;;;0.10;0.10;;;;;;;;;;5023557;28;20128;-88
2022/07/26 05:20:05;;;;;;;0.10;0.10;;;;;;;;;;5038787;28;20096;-87
2022/07/26 05:22:31;;;;;;;0.05;0.05;;;;;;;;;;5019398;28;20041;-88
2022/07/26 05:24:57;;;;;;;0.10;0.10;;;;;;;;;;5021638;28;20057;-88
2022/07/26 05:27:23;;;;;;;0.05;0.05;;;;;;;;;;5038395;28;20014;-88
2022/07/26 05:29:49;;;;;;;0.10;0.10;;;;;;;;;;5018585;28;20038;-87
2022/07/26 05:32:15;;;;;;;0.10;0.10;;;;;;;;;;5019252;28;20449;-88
2022/07/26 05:34:41;;;;;;;0.00;0.00;;;;;;;;;;5038357;28;20038;-89
2022/07/26 05:37:07;;;;;;;0.00;0.00;;;;;;;;;;5039222;28;20073;-88
2022/07/26 05:39:33;;;;;;;0.00;0.00;;;;;;;;;;5038996;28;20042;-88
2022/07/26 05:41:59;;;;;;;0.00;0.00;;;;;;;;;;5021762;28;20033;-88
2022/07/26 05:44:25;;;;;;;0.10;0.10;;;;;;;;;;5020317;28;20079;-88
2022/07/26 05:46:51;;;;;;;0.00;0.00;;;;;;;;;;5036609;28;20038;-87
2022/07/26 05:49:18;;;;;;;0.00;0.00;;;;;;;;;;5037037;28;20044;-88
2022/07/26 05:51:44;;;;;;;0.00;0.00;;;;;;;;;;5018064;28;20096;-87
2022/07/26 05:54:10;;;;;;;0.08;0.08;;;;;;;;;;5036764;28;20128;-86
2022/07/26 05:56:36;;;;;;;0.10;0.10;;;;;;;;;;5018784;28;20116;-88
2022/07/26 05:59:02;;;;;;;0.08;0.08;;;;;;;;;;5036913;28;20100;-88
2022/07/26 06:01:31;;;;;;;0.10;0.10;;;;;;;;;;5038454;28;20030;-89
2022/07/26 06:03:57;;;;;;;0.10;0.10;;;;;;;;;;5018335;28;20050;-89
2022/07/26 06:06:23;;;;;;;0.10;0.10;;;;;;;;;;5021991;28;20042;-90
2022/07/26 06:08:49;;;;;;;0.15;0.15;;;;;;;;;;5039107;28;20041;-90
2022/07/26 06:11:15;;;;;;;0.00;0.00;;;;;;;;;;5020515;28;20064;-91
2022/07/26 06:13:41;;;;;;;0.10;0.10;;;;;;;;;;5013012;28;20052;-91
2022/07/26 06:16:07;;;;;;;0.00;0.00;;;;;;;;;;5041492;28;20577;-91
2022/07/26 06:18:33;;;;;;;0.00;0.00;;;;;;;;;;5040420;28;20046;-91
2022/07/26 06:20:59;;;;;;;0.10;0.10;;;;;;;;;;5018646;28;20040;-90
2022/07/26 06:23:26;;;;;;;0.00;0.00;;;;;;;;;;5039115;28;20030;-90
2022/07/26 06:25:52;;;;;;;0.03;0.03;;;;;;;;;;5017929;28;20096;-90
2022/07/26 06:28:18;;;;;;;0.10;0.10;;;;;;;;;;5020925;28;20034;-90
2022/07/26 06:30:44;;;;;;;0.10;0.10;;;;;;;;;;5039774;28;20037;-90
2022/07/26 06:33:11;;;;;;;0.03;0.03;;;;;;;;;;5020089;28;20065;-89
2022/07/26 06:35:38;;;;;;;0.00;0.00;;;;;;;;;;5037257;28;20072;-90
2022/07/26 06:38:05;;;;;;;0.10;0.10;;;;;;;;;;5004130;28;20456;-90
2022/07/26 06:40:32;;;;;;;0.00;0.00;;;;;;;;;;5038273;28;20033;-89
2022/07/26 06:42:58;;;;;;;0.10;0.10;;;;;;;;;;5022776;28;20072;-90
2022/07/26 06:45:24;;;;;;;0.03;0.03;;;;;;;;;;5039702;28;20092;-90
2022/07/26 06:47:50;;;;;;;0.00;0.00;;;;;;;;;;5039587;28;20041;-90
2022/07/26 06:50:16;;;;;;;0.03;0.03;;;;;;;;;;5023318;28;20048;-90
2022/07/26 06:52:42;;;;;;;0.00;0.00;;;;;;;;;;5020342;28;20038;-91
2022/07/26 06:55:08;;;;;;;0.03;0.03;;;;;;;;;;5020940;28;20422;-91
2022/07/26 06:57:35;;;;;;;0.08;0.08;;;;;;;;;;5022640;28;20454;-91
2022/07/26 07:00:01;;;;;;;0.00;0.00;;;;;;;;;;5007989;28;20037;-91
2022/07/26 07:02:27;;;;;;;0.10;0.10;;;;;;;;;;5016838;28;20037;-92
2022/07/26 07:04:53;;;;;;;0.10;0.10;;;;;;;;;;5040950;28;20033;-90
2022/07/26 07:07:19;;;;;;;0.10;0.10;;;;;;;;;;5023181;28;20043;-92
2022/07/26 07:09:45;;;;;;;0.00;0.00;;;;;;;;;;5040429;28;20105;-91
2022/07/26 07:12:11;;;;;;;0.00;0.00;;;;;;;;;;5024208;28;20047;-91
2022/07/26 07:14:38;;;;;;;0.00;0.00;;;;;;;;;;5044166;28;20063;-88
2022/07/26 07:17:05;;;;;;;0.08;0.08;;;;;;;;;;5044288;28;20041;-88
2022/07/26 07:19:31;;;;;;;0.00;0.00;;;;;;;;;;5024890;28;20045;-91
2022/07/26 07:21:57;;;;;;;0.17;0.17;;;;;;;;;;5026113;28;20053;-90
2022/07/26 07:24:23;;;;;;;0.03;0.03;;;;;;;;;;5045027;28;20033;-90
2022/07/26 07:26:49;;;;;;;0.10;0.10;;;;;;;;;;5044778;28;20037;-90
2022/07/26 07:29:16;;;;;;;0.20;0.20;;;;;;;;;;5044681;28;20040;-90
2022/07/26 07:31:44;;;;;;;0.00;0.00;;;;;;;;;;5026374;28;20041;-91
2022/07/26 07:34:12;;;;;;;0.10;0.10;;;;;;;;;;5026708;28;20041;-90
2022/07/26 07:36:38;;;;;;;0.10;0.10;;;;;;;;;;5044661;28;20463;-91
2022/07/26 07:39:04;;;;;;;0.20;0.20;;;;;;;;;;5044765;28;20053;-91
2022/07/26 07:41:33;;;;;;;0.00;0.00;;;;;;;;;;5045349;28;20034;-90
2022/07/26 07:43:59;;;;;;;0.05;0.05;;;;;;;;;;5027894;28;20410;-90
2022/07/26 07:46:25;;;;;;;0.10;0.10;;;;;;;;;;5024766;28;20091;-91
2022/07/26 07:48:51;;;;;;;0.10;0.10;;;;;;;;;;5028497;28;20132;-90
2022/07/26 07:51:17;;;;;;;0.10;0.10;;;;;;;;;;5029093;28;20041;-91
2022/07/26 07:53:44;;;;;;;0.10;0.10;;;;;;;;;;5045717;28;20060;-92
2022/07/26 07:56:10;;;;;;;0.10;0.10;;;;;;;;;;5045775;28;20096;-92
2022/07/26 07:58:36;;;;;;;0.08;0.08;;;;;;;;;;5045456;28;20414;-92
2022/07/26 08:01:02;;;;;;;0.20;0.20;;;;;;;;;;5029141;28;20494;-91
2022/07/26 08:03:28;;;;;;;0.10;0.10;;;;;;;;;;5045342;28;20061;-91
2022/07/26 08:05:54;;;;;;;0.10;0.10;;;;;;;;;;5044959;28;20038;-91
2022/07/26 08:08:20;;;;;;;0.10;0.10;;;;;;;;;;5028442;28;20033;-90
2022/07/26 08:10:46;;;;;;;0.00;0.00;;;;;;;;;;5024775;28;20066;-91
2022/07/26 08:13:12;;;;;;;0.10;0.10;;;;;;;;;;5026242;28;20465;-91
2022/07/26 08:15:38;;;;;;;0.10;0.10;;;;;;;;;;5044648;28;20105;-91
2022/07/26 08:18:04;;;;;;;0.00;0.00;;;;;;;;;;5028868;28;20517;-92
2022/07/26 08:20:39;;;;;;;0.05;0.05;;;;;;;;;;5026877;28;20049;-89
2022/07/26 08:23:05;;;;;;;0.03;0.03;;;;;;;;;;5043774;28;20045;-89
2022/07/26 08:25:31;;;;;;;0.10;0.10;;;;;;;;;;5043731;28;20041;-90
2022/07/26 08:27:57;;;;;;;0.00;0.00;;;;;;;;;;5045164;28;20105;-91
2022/07/26 08:30:23;;;;;;;0.00;0.00;;;;;;;;;;5044043;28;20037;-89
2022/07/26 08:32:49;;;;;;;0.10;0.10;;;;;;;;;;5042897;28;20045;-91
2022/07/26 08:35:15;;;;;;;0.10;0.10;;;;;;;;;;5026574;28;20037;-89
2022/07/26 08:37:43;;;;;;;0.03;0.03;;;;;;;;;;5027085;28;20037;-90
2022/07/26 08:40:09;;;;;;;0.00;0.00;;;;;;;;;;5024674;28;20034;-89
2022/07/26 08:42:35;;;;;;;0.03;0.03;;;;;;;;;;5043895;28;20034;-91
2022/07/26 08:45:01;;;;;;;0.10;0.10;;;;;;;;;;5023928;28;20061;-90
2022/07/26 08:47:28;;;;;;;0.00;0.00;;;;;;;;;;5039075;28;20041;-90
2022/07/26 08:49:54;;;;;;;0.03;0.03;;;;;;;;;;5026979;28;20037;-90
2022/07/26 08:52:20;;;;;;;0.05;0.05;;;;;;;;;;5043989;28;20033;-91
2022/07/26 08:54:47;;;;;;;0.10;0.10;;;;;;;;;;5043848;28;20041;-91
2022/07/26 08:57:14;;;;;;;0.25;0.25;;;;;;;;;;5027351;28;20042;-90
2022/07/26 08:59:40;;;;;;;0.10;0.10;;;;;;;;;;5044604;28;20124;-91
2022/07/26 09:02:07;;;;;;;0.00;0.00;;;;;;;;;;5044430;28;20120;-92
2022/07/26 09:04:35;;;;;;;0.00;0.00;;;;;;;;;;5043835;28;20513;-91
2022/07/26 09:07:08;;;;;;;0.10;0.10;;;;;;;;;;5042635;28;20030;-91
2022/07/26 09:09:36;;;;;;;0.10;0.10;;;;;;;;;;5042308;28;20059;-91
2022/07/26 09:12:23;;;;;;;0.10;0.10;;;;;;;;;;5042144;28;20033;-90
2022/07/26 09:14:49;;;;;;;0.10;0.10;;;;;;;;;;5025544;28;20052;-89
2022/07/26 09:17:17;;;;;;;0.00;0.00;;;;;;;;;;5041618;28;20033;-90
2022/07/26 09:19:43;;;;;;;0.20;0.20;;;;;;;;;;5026851;28;20514;-91
2022/07/26 09:22:11;;;;;;;0.00;0.00;;;;;;;;;;5025224;28;20034;-90
2022/07/26 09:24:41;;;;;;;0.10;0.10;;;;;;;;;;5021743;28;20042;-90
2022/07/26 09:27:09;;;;;;;0.10;0.10;;;;;;;;;;5022789;28;20080;-92
2022/07/26 09:29:46;;;;;;;0.00;0.00;;;;;;;;;;5024180;28;20033;-91
2022/07/26 09:32:15;;;;;;;0.00;0.00;;;;;;;;;;5023734;28;20048;-90
2022/07/26 09:34:42;;;;;;;0.00;0.00;;;;;;;;;;5021660;28;20049;-91
2022/07/26 09:37:08;;;;;;;0.03;0.03;;;;;;;;;;5034834;28;20037;-91
2022/07/26 09:39:52;;;;;;;0.08;0.08;;;;;;;;;;5041813;28;20037;-90
2022/07/26 09:42:18;;;;;;;0.00;0.00;;;;;;;;;;5041092;28;20037;-90
2022/07/26 09:44:44;;;;;;;0.00;0.00;;;;;;;;;;5041688;28;20395;-90
2022/07/26 09:47:10;;;;;;;0.10;0.10;;;;;;;;;;5041796;28;20557;-90
2022/07/26 09:49:36;;;;;;;0.00;0.00;;;;;;;;;;5041756;28;20068;-89
2022/07/26 09:52:13;;;;;;;0.10;0.10;;;;;;;;;;5023120;28;20037;-90
2022/07/26 09:54:40;;;;;;;0.10;0.10;;;;;;;;;;5041680;28;20037;-90
2022/07/26 09:57:06;;;;;;;0.00;0.00;;;;;;;;;;5023490;28;20526;-90
2022/07/26 09:59:32;;;;;;;0.10;0.10;;;;;;;;;;5023539;28;20069;-90
2022/07/26 10:01:59;;;;;;;0.05;0.05;;;;;;;;;;5039270;28;20044;-90
2022/07/26 10:04:26;;;;;;;0.10;0.10;;;;;;;;;;5023224;28;20040;-90
2022/07/26 10:06:52;;;;;;;0.10;0.10;;;;;;;;;;5023802;28;20051;-92
2022/07/26 10:09:31;;;;;;;0.03;0.03;;;;;;;;;;5090857;27;1272472;-90
2022/07/26 10:11:59;;;;;;;0.10;0.10;;;;;;;;;;5100209;28;20052;-91
2022/07/26 10:14:35;;;;;;;0.10;0.10;;;;;;;;;;5084179;28;20044;-91
2022/07/26 10:17:07;;;;;;;0.00;0.00;;;;;;;;;;5083607;28;20040;-90
2022/07/26 10:19:38;;;;;;;0.10;0.10;;;;;;;;;;5083671;28;20043;-91
2022/07/26 10:22:23;;;;;;;0.10;0.10;;;;;;;;;;5083568;28;20050;-91
2022/07/26 10:24:49;;;;;;;0.10;0.10;;;;;;;;;;5081790;28;20036;-92
2022/07/26 10:27:34;;;;;;;0.00;0.00;;;;;;;;;;5082644;28;20042;-92
2022/07/26 10:30:21;;;;;;;0.10;0.10;;;;;;;;;;5084520;28;20057;-92
2022/07/26 10:32:50;;;;;;;0.10;0.10;;;;;;;;;;5082031;28;20043;-91
2022/07/26 10:35:35;;;;;;;0.10;0.10;;;;;;;;;;5080546;28;20093;-91
2022/07/26 10:38:03;;;;;;;0.10;0.10;;;;;;;;;;5083281;28;20063;-91
2022/07/26 10:40:29;;;;;;;0.03;0.03;;;;;;;;;;5084513;28;20047;-90
2022/07/26 10:43:09;;;;;;;0.10;0.10;;;;;;;;;;5084326;28;20050;-91
2022/07/26 10:45:35;;;;;;;0.10;0.10;;;;;;;;;;5083535;28;20496;-90
2022/07/26 10:48:18;;;;;;;0.03;0.03;;;;;;;;;;5083961;28;20107;-90
2022/07/26 10:50:48;;;;;;;0.10;0.10;;;;;;;;;;5084857;28;20439;-90
2022/07/26 10:53:22;;;;;;;0.08;0.08;;;;;;;;;;5080922;28;20032;-91
2022/07/26 10:55:48;;;;;;;0.00;0.00;;;;;;;;;;5077034;28;20039;-90
2022/07/26 10:58:14;;;;;;;0.00;0.00;;;;;;;;;;5084063;28;20124;-90
2022/07/26 11:00:40;;;;;;;0.10;0.10;;;;;;;;;;5083823;28;20053;-92
2022/07/26 11:03:06;;;;;;;0.15;0.15;;;;;;;;;;5084797;28;20104;-91
2022/07/26 11:05:34;;;;;;;0.00;0.00;;;;;;;;;;5082941;28;20061;-90
2022/07/26 11:08:08;;;;;;;0.10;0.10;;;;;;;;;;5082710;28;20035;-90
2022/07/26 11:10:39;;;;;;;0.00;0.00;;;;;;;;;;5100063;28;20040;-89
2022/07/26 11:13:05;;;;;;;0.10;0.10;;;;;;;;;;5084301;28;20047;-90
2022/07/26 11:15:32;;;;;;;0.10;0.10;;;;;;;;;;5083487;28;20032;-90
2022/07/26 11:18:17;;;;;;;0.00;0.00;;;;;;;;;;5083360;28;20040;-91
2022/07/26 11:20:44;;;;;;;0.00;0.00;;;;;;;;;;5066070;28;20040;-90
2022/07/26 11:23:30;;;;;;;0.00;0.00;;;;;;;;;;5069051;28;20310;-90
2022/07/26 11:26:00;;;;;;;0.10;0.10;;;;;;;;;;5063338;28;20046;-92
2022/07/26 11:28:26;;;;;;;0.03;0.03;;;;;;;;;;5070358;28;20062;-92
2022/07/26 11:30:59;;;;;;;0.13;0.13;;;;;;;;;;5070879;28;20044;-91
2022/07/26 11:33:35;;;;;;;0.08;0.08;;;;;;;;;;5070476;28;20089;-90
2022/07/26 11:36:03;;;;;;;0.10;0.10;;;;;;;;;;5069520;28;20493;-92
2022/07/26 11:38:48;;;;;;;0.00;0.00;;;;;;;;;;5069501;28;20040;-91
2022/07/26 11:41:34;;;;;;;0.00;0.00;;;;;;;;;;5061490;28;20036;-91
2022/07/26 11:44:00;;;;;;;0.10;0.10;;;;;;;;;;5070744;28;20072;-90
2022/07/26 11:46:33;;;;;;;0.10;0.10;;;;;;;;;;5069024;28;20431;-90
2022/07/26 11:48:59;;;;;;;0.15;0.15;;;;;;;;;;5068590;28;20039;-90
2022/07/26 11:51:25;;;;;;;0.10;0.10;;;;;;;;;;5069070;28;20040;-91
2022/07/26 11:53:58;;;;;;;0.00;0.00;;;;;;;;;;5068668;28;20032;-90
2022/07/26 11:56:25;;;;;;;0.00;0.00;;;;;;;;;;5069809;28;20447;-92
2022/07/26 11:58:53;;;;;;;0.08;0.08;;;;;;;;;;5069304;28;20032;-91
2022/07/26 12:01:20;;;;;;;0.10;0.10;;;;;;;;;;5068562;28;20079;-90
2022/07/26 12:03:47;;;;;;;0.10;0.10;;;;;;;;;;5068744;28;20040;-91
2022/07/26 12:06:15;;;;;;;0.10;0.10;;;;;;;;;;5068563;28;20119;-91
2022/07/26 12:08:43;;;;;;;0.00;0.00;;;;;;;;;;5068379;28;20047;-91
2022/07/26 12:11:09;;;;;;;0.00;0.00;;;;;;;;;;5070467;28;20028;-90
2022/07/26 12:13:48;;;;;;;0.10;0.10;;;;;;;;;;5068554;28;20082;-91
2022/07/26 12:16:33;;;;;;;0.00;0.00;;;;;;;;;;5064310;28;20054;-90
2022/07/26 12:18:59;;;;;;;0.10;0.10;;;;;;;;;;5068687;28;20128;-91
2022/07/26 12:21:37;;;;;;;0.00;0.00;;;;;;;;;;5068741;28;20044;-89
2022/07/26 12:24:03;;;;;;;0.10;0.10;;;;;;;;;;5068523;28;20040;-89
2022/07/26 12:26:29;;;;;;;0.00;0.00;;;;;;;;;;5068781;28;20062;-91
2022/07/26 12:28:57;;;;;;;0.00;0.00;;;;;;;;;;5067876;28;20040;-89
2022/07/26 12:31:27;;;;;;;0.10;0.10;;;;;;;;;;5067016;28;20046;-91
2022/07/26 12:33:54;;;;;;;0.10;0.10;;;;;;;;;;5068370;28;20040;-90
2022/07/26 12:36:20;;;;;;;0.00;0.00;;;;;;;;;;5067342;28;20040;-89
2022/07/26 12:38:46;;;;;;;0.03;0.03;;;;;;;;;;5068106;28;20036;-90
2022/07/26 12:41:12;;;;;;;0.10;0.10;;;;;;;;;;5068243;28;20071;-89
2022/07/26 12:43:39;;;;;;;0.10;0.10;;;;;;;;;;5068299;28;20039;-89
2022/07/26 12:46:05;;;;;;;0.20;0.20;;;;;;;;;;5084164;28;20610;-90
2022/07/26 12:48:31;;;;;;;0.10;0.10;;;;;;;;;;5067785;28;20040;-89
2022/07/26 12:50:58;;;;;;;0.10;0.10;;;;;;;;;;5069010;28;20020;-90
2022/07/26 12:53:24;;;;;;;0.00;0.00;;;;;;;;;;5068438;28;20040;-90
2022/07/26 12:55:50;;;;;;;0.10;0.10;;;;;;;;;;5065898;28;20039;-89
2022/07/26 12:58:16;;;;;;;0.10;0.10;;;;;;;;;;5066471;28;20058;-90
2022/07/26 13:00:42;;;;;;;0.15;0.15;;;;;;;;;;5067378;28;20040;-91
2022/07/26 13:03:08;;;;;;;0.05;0.05;;;;;;;;;;5067764;28;20095;-91
2022/07/26 13:05:34;;;;;;;0.17;0.17;;;;;;;;;;5066536;28;20036;-90
2022/07/26 13:08:00;;;;;;;0.10;0.10;;;;;;;;;;5066934;28;20119;-90
2022/07/26 13:10:26;;;;;;;0.10;0.10;;;;;;;;;;5067721;28;20070;-91
2022/07/26 13:12:52;;;;;;;0.10;0.10;;;;;;;;;;5066927;28;20397;-90
2022/07/26 13:15:18;;;;;;;0.00;0.00;;;;;;;;;;5067926;28;20497;-90
2022/07/26 13:17:44;;;;;;;0.10;0.10;;;;;;;;;;5067404;28;20042;-89
2022/07/26 13:20:10;;;;;;;0.00;0.00;;;;;;;;;;5068575;28;20056;-91
2022/07/26 13:22:36;;;;;;;0.10;0.10;;;;;;;;;;5068603;28;20036;-91
2022/07/26 13:25:02;;;;;;;0.10;0.10;;;;;;;;;;5068438;28;20040;-90
2022/07/26 13:27:28;;;;;;;0.00;0.00;;;;;;;;;;5067874;28;20055;-89
2022/07/26 13:29:55;;;;;;;0.20;0.20;;;;;;;;;;5067712;28;20043;-90
2022/07/26 13:32:21;;;;;;;0.03;0.03;;;;;;;;;;5084980;28;20450;-89
2022/07/26 13:34:47;;;;;;;0.05;0.05;;;;;;;;;;5067982;28;20042;-90
2022/07/26 13:37:13;;;;;;;0.00;0.00;;;;;;;;;;5067600;28;20036;-90
2022/07/26 13:39:39;;;;;;;0.10;0.10;;;;;;;;;;5068563;28;20028;-90
2022/07/26 13:42:06;;;;;;;0.00;0.00;;;;;;;;;;5063349;28;20123;-93
2022/07/26 13:44:32;;;;;;;0.08;0.08;;;;;;;;;;5064194;28;20115;-89
2022/07/26 13:46:58;;;;;;;0.10;0.10;;;;;;;;;;5066543;28;20516;-89
2022/07/26 13:49:24;;;;;;;0.00;0.00;;;;;;;;;;5065940;28;20556;-89
2022/07/26 13:51:56;;;;;;;0.00;0.00;;;;;;;;;;5065424;28;20076;-88
2022/07/26 13:54:27;;;;;;;0.00;0.00;;;;;;;;;;5067382;28;20040;-92
2022/07/26 13:56:53;;;;;;;0.10;0.10;;;;;;;;;;5066783;28;20121;-90
2022/07/26 13:59:20;;;;;;;0.10;0.10;;;;;;;;;;5067245;28;20048;-91
2022/07/26 14:01:46;;;;;;;0.10;0.10;;;;;;;;;;5064993;28;20042;-91
2022/07/26 14:04:12;;;;;;;0.00;0.00;;;;;;;;;;5067696;28;20541;-89
2022/07/26 14:06:38;;;;;;;0.00;0.00;;;;;;;;;;5066822;28;20119;-90
2022/07/26 14:09:05;;;;;;;0.10;0.10;;;;;;;;;;5067885;28;20040;-89
2022/07/26 14:11:31;;;;;;;0.10;0.10;;;;;;;;;;5067120;28;20028;-89
2022/07/26 14:13:57;;;;;;;0.00;0.00;;;;;;;;;;5067232;28;20028;-89
2022/07/26 14:16:26;;;;;;;0.00;0.00;;;;;;;;;;5067166;28;20047;-89
2022/07/26 14:18:53;;;;;;;0.03;0.03;;;;;;;;;;5068429;28;20465;-91
2022/07/26 14:21:20;;;;;;;0.10;0.10;;;;;;;;;;5066837;28;20389;-90
2022/07/26 14:23:46;;;;;;;0.08;0.08;;;;;;;;;;5067510;28;20036;-91
2022/07/26 14:26:12;;;;;;;0.10;0.10;;;;;;;;;;5065854;28;20071;-89
2022/07/26 14:28:38;;;;;;;0.10;0.10;;;;;;;;;;5065879;28;20038;-91
2022/07/26 14:31:04;;;;;;;0.00;0.00;;;;;;;;;;5065919;28;20044;-90
2022/07/26 14:33:30;;;;;;;0.10;0.10;;;;;;;;;;5066838;28;20063;-91
2022/07/26 14:35:56;;;;;;;0.10;0.10;;;;;;;;;;5066928;28;20067;-91
2022/07/26 14:38:22;;;;;;;0.15;0.15;;;;;;;;;;5066377;28;20044;-90
2022/07/26 14:40:49;;;;;;;0.00;0.00;;;;;;;;;;5082434;28;20075;-90
2022/07/26 14:43:15;;;;;;;0.00;0.00;;;;;;;;;;5067245;28;20044;-90
2022/07/26 14:45:41;;;;;;;0.00;0.00;;;;;;;;;;5066530;28;20481;-90
2022/07/26 14:48:07;;;;;;;0.10;0.10;;;;;;;;;;5066071;28;20049;-91